Time,TemperatureF,DewpointF,PressureIn,WindDirection,WindDirectionDegrees,WindSpeedMPH,WindSpeedGustMPH,Humidity,HourlyPrecipIn,Conditions,Clouds,dailyrainin,SoftwareType,DateUTC
2013-10-21 00:03:00,52.7,43.6,29.67,SSW,202,10.4,-999.0,71,-99.99,,,0.00,Acu-Link.com,2013-10-21 04:03:00,
2013-10-21 00:18:00,52.7,43.6,29.68,SSW,202,8.9,-999.0,71,-99.99,,,0.00,Acu-Link.com,2013-10-21 04:18:00,
2013-10-21 00:33:00,52.3,43.5,29.68,SSW,202,10.9,-999.0,72,-99.99,,,0.00,Acu-Link.com,2013-10-21 04:33:00,
2013-10-21 00:48:00,52.2,43.8,29.67,SW,225,7.3,-999.0,73,-99.99,,,0.00,Acu-Link.com,2013-10-21 04:48:00,
2013-10-21 01:03:00,51.8,43.8,29.67,SW,225,9.4,-999.0,74,-99.99,,,0.00,Acu-Link.com,2013-10-21 05:03:00,
2013-10-21 01:18:00,51.4,43.4,29.68,South,180,9.4,-999.0,74,-99.99,,,0.00,Acu-Link.com,2013-10-21 05:18:00,
2013-10-21 01:33:00,50.7,43.1,29.68,SSW,202,7.8,-999.0,75,-99.99,,,0.00,Acu-Link.com,2013-10-21 05:33:00,
2013-10-21 01:49:00,50.5,43.2,29.67,SSE,157,7.8,-999.0,76,-99.99,,,0.00,Acu-Link.com,2013-10-21 05:49:00,
2013-10-21 02:04:00,49.6,43.0,29.68,SW,225,5.8,-999.0,78,-99.99,,,0.00,Acu-Link.com,2013-10-21 06:04:00,
2013-10-21 02:19:00,49.6,43.4,29.68,SSW,202,7.8,-999.0,79,-99.99,,,0.00,Acu-Link.com,2013-10-21 06:19:00,
2013-10-21 02:34:00,49.3,43.4,29.68,SSW,202,6.8,-999.0,80,-99.99,,,0.00,Acu-Link.com,2013-10-21 06:34:00,
2013-10-21 02:49:00,48.9,43.3,29.68,South,180,6.3,-999.0,81,-99.99,,,0.00,Acu-Link.com,2013-10-21 06:49:00,
2013-10-21 03:04:00,48.7,43.5,29.67,South,180,6.8,-999.0,82,-99.99,,,0.00,Acu-Link.com,2013-10-21 07:04:00,
2013-10-21 03:19:00,48.6,43.4,29.68,South,180,5.3,-999.0,82,-99.99,,,0.00,Acu-Link.com,2013-10-21 07:19:00,
2013-10-21 03:34:00,48.0,43.1,29.68,South,180,5.8,-999.0,83,-99.99,,,0.00,Acu-Link.com,2013-10-21 07:34:00,
2013-10-21 03:49:00,48.0,43.1,29.67,SSW,202,7.8,-999.0,83,-99.99,,,0.00,Acu-Link.com,2013-10-21 07:49:00,
2013-10-21 04:05:00,48.0,43.1,29.67,SSW,202,6.3,-999.0,83,-99.99,,,0.00,Acu-Link.com,2013-10-21 08:05:00,
2013-10-21 04:20:00,48.0,43.4,29.67,SSW,202,6.8,-999.0,84,-99.99,,,0.00,Acu-Link.com,2013-10-21 08:20:00,
2013-10-21 04:35:00,48.0,43.4,29.67,SSE,157,7.3,-999.0,84,-99.99,,,0.00,Acu-Link.com,2013-10-21 08:35:00,
2013-10-21 04:50:00,48.0,43.4,29.67,SSW,202,9.9,-999.0,84,-99.99,,,0.00,Acu-Link.com,2013-10-21 08:50:00,
2013-10-21 05:06:00,48.0,43.4,29.66,SSW,202,7.3,-999.0,84,-99.99,,,0.00,Acu-Link.com,2013-10-21 09:06:00,
2013-10-21 05:21:00,48.0,43.4,29.66,SSW,202,9.4,-999.0,84,-99.99,,,0.00,Acu-Link.com,2013-10-21 09:21:00,
2013-10-21 05:36:00,48.0,43.4,29.66,South,180,8.3,-999.0,84,-99.99,,,0.00,Acu-Link.com,2013-10-21 09:36:00,
2013-10-21 05:51:00,47.8,43.2,29.66,SSE,157,6.8,-999.0,84,-99.99,,,0.00,Acu-Link.com,2013-10-21 09:51:00,
2013-10-21 06:06:00,47.7,43.4,29.66,SSW,202,8.9,-999.0,85,-99.99,,,0.00,Acu-Link.com,2013-10-21 10:06:00,
2013-10-21 06:21:00,47.3,43.0,29.66,South,180,5.8,-999.0,85,-99.99,,,0.00,Acu-Link.com,2013-10-21 10:21:00,
2013-10-21 06:37:00,47.3,43.0,29.66,SSW,202,8.9,-999.0,85,-99.99,,,0.00,Acu-Link.com,2013-10-21 10:37:00,
2013-10-21 06:52:00,47.3,43.0,29.67,SSW,202,10.4,-999.0,85,-99.99,,,0.00,Acu-Link.com,2013-10-21 10:52:00,
2013-10-21 07:07:00,47.1,42.8,29.67,SSW,202,9.9,-999.0,85,-99.99,,,0.00,Acu-Link.com,2013-10-21 11:07:00,
2013-10-21 07:22:00,46.8,42.5,29.67,SSW,202,7.3,-999.0,85,-99.99,,,0.00,Acu-Link.com,2013-10-21 11:22:00,
2013-10-21 07:37:00,46.4,42.4,29.67,South,180,7.3,-999.0,86,-99.99,,,0.00,Acu-Link.com,2013-10-21 11:37:00,
2013-10-21 07:53:00,46.2,42.5,29.66,SSW,202,5.8,-999.0,87,-99.99,,,0.00,Acu-Link.com,2013-10-21 11:53:00,
2013-10-21 08:08:00,46.2,42.5,29.67,SSE,157,4.7,-999.0,87,-99.99,,,0.00,Acu-Link.com,2013-10-21 12:08:00,
2013-10-21 08:23:00,46.6,42.9,29.66,SSW,202,8.9,-999.0,87,-99.99,,,0.00,Acu-Link.com,2013-10-21 12:23:00,
2013-10-21 08:38:00,47.1,43.4,29.67,SSW,202,6.3,-999.0,87,-99.99,,,0.00,Acu-Link.com,2013-10-21 12:38:00,
2013-10-21 08:54:00,47.1,43.1,29.67,SE,135,9.9,-999.0,86,-99.99,,,0.00,Acu-Link.com,2013-10-21 12:54:00,
2013-10-21 09:09:00,47.7,43.7,29.68,South,180,8.3,-999.0,86,-99.99,,,0.00,Acu-Link.com,2013-10-21 13:09:00,
2013-10-21 09:24:00,47.8,43.5,29.68,SSW,202,7.8,-999.0,85,-99.99,,,0.00,Acu-Link.com,2013-10-21 13:24:00,
2013-10-21 09:39:00,49.5,44.6,29.68,South,180,7.8,-999.0,83,-99.99,,,0.00,Acu-Link.com,2013-10-21 13:39:00,
2013-10-21 09:54:00,51.1,45.5,29.68,SSW,202,9.4,-999.0,81,-99.99,,,0.00,Acu-Link.com,2013-10-21 13:54:00,
2013-10-21 10:09:00,52.3,46.0,29.68,SSW,202,10.9,-999.0,79,-99.99,,,0.00,Acu-Link.com,2013-10-21 14:09:00,
2013-10-21 10:24:00,53.1,46.1,29.68,SSW,202,11.9,-999.0,77,-99.99,,,0.00,Acu-Link.com,2013-10-21 14:24:00,
2013-10-21 10:39:00,54.1,46.7,29.69,SW,225,11.9,-999.0,76,-99.99,,,0.00,Acu-Link.com,2013-10-21 14:39:00,
2013-10-21 10:54:00,54.7,46.9,29.68,WSW,247,10.4,-999.0,75,-99.99,,,0.00,Acu-Link.com,2013-10-21 14:54:00,
2013-10-21 11:09:00,55.0,46.9,29.67,SSW,202,10.4,-999.0,74,-99.99,,,0.00,Acu-Link.com,2013-10-21 15:09:00,
2013-10-21 11:24:00,55.9,47.7,29.66,SSW,202,5.3,-999.0,74,-99.99,,,0.00,Acu-Link.com,2013-10-21 15:24:00,
2013-10-21 11:40:00,57.0,48.1,29.67,SW,225,6.8,-999.0,72,-99.99,,,0.00,Acu-Link.com,2013-10-21 15:40:00,
2013-10-21 11:55:00,57.0,48.1,29.67,South,180,7.3,-999.0,72,-99.99,,,0.00,Acu-Link.com,2013-10-21 15:55:00,
2013-10-21 12:10:00,57.7,48.7,29.66,SSW,202,6.3,-999.0,72,-99.99,,,0.00,Acu-Link.com,2013-10-21 16:10:00,
2013-10-21 12:25:00,58.8,49.4,29.66,SSW,202,11.9,-999.0,71,-99.99,,,0.00,Acu-Link.com,2013-10-21 16:25:00,
2013-10-21 12:41:00,58.8,48.7,29.66,SSW,202,6.8,-999.0,69,-99.99,,,0.00,Acu-Link.com,2013-10-21 16:41:00,
2013-10-21 12:56:00,58.8,48.7,29.65,SW,225,8.3,-999.0,69,-99.99,,,0.00,Acu-Link.com,2013-10-21 16:56:00,
2013-10-21 13:11:00,58.5,49.1,29.65,West,270,5.3,-999.0,71,-99.99,,,0.00,Acu-Link.com,2013-10-21 17:11:00,
2013-10-21 13:26:00,58.3,48.6,29.65,SW,225,5.8,-999.0,70,-99.99,,,0.00,Acu-Link.com,2013-10-21 17:26:00,
2013-10-21 13:41:00,58.5,49.1,29.65,West,270,6.8,-999.0,71,-99.99,,,0.00,Acu-Link.com,2013-10-21 17:41:00,
2013-10-21 13:56:00,57.7,48.4,29.64,West,270,6.3,-999.0,71,-99.99,,,0.00,Acu-Link.com,2013-10-21 17:56:00,
2013-10-21 14:11:00,56.7,48.5,29.65,NNW,337,13.5,-999.0,74,-99.99,,,0.00,Acu-Link.com,2013-10-21 18:11:00,
2013-10-21 14:27:00,54.9,48.2,29.64,West,270,5.8,-999.0,78,-99.99,,,0.00,Acu-Link.com,2013-10-21 18:27:00,
2013-10-21 14:42:00,54.1,47.7,29.64,WNW,292,5.8,-999.0,79,-99.99,,,0.00,Acu-Link.com,2013-10-21 18:42:00,
2013-10-21 14:57:00,54.0,48.0,29.64,SW,225,7.8,-999.0,80,-99.99,,,0.00,Acu-Link.com,2013-10-21 18:57:00,
2013-10-21 15:12:00,53.6,47.6,29.63,WNW,292,5.8,-999.0,80,-99.99,,,0.00,Acu-Link.com,2013-10-21 19:12:00,
2013-10-21 15:27:00,54.0,48.0,29.63,WNW,292,9.4,-999.0,80,-99.99,,,0.00,Acu-Link.com,2013-10-21 19:27:00,
2013-10-21 15:42:00,54.1,48.1,29.63,SSW,202,6.8,-999.0,80,-99.99,,,0.00,Acu-Link.com,2013-10-21 19:42:00,
2013-10-21 15:57:00,53.8,48.1,29.63,West,270,5.3,-999.0,81,-99.99,,,0.00,Acu-Link.com,2013-10-21 19:57:00,
2013-10-21 16:12:00,52.3,48.2,29.64,WNW,292,10.9,-999.0,86,-99.99,,,0.00,Acu-Link.com,2013-10-21 20:12:00,
2013-10-21 16:27:00,51.1,48.0,29.64,WNW,292,6.3,-999.0,89,-99.99,,,0.00,Acu-Link.com,2013-10-21 20:27:00,
2013-10-21 16:43:00,50.7,47.9,29.64,West,270,6.8,-999.0,90,-99.99,,,0.00,Acu-Link.com,2013-10-21 20:43:00,
2013-10-21 16:58:00,50.4,47.6,29.65,NW,315,9.4,-999.0,90,-99.99,,,0.00,Acu-Link.com,2013-10-21 20:58:00,
2013-10-21 17:13:00,50.2,47.4,29.65,NW,315,7.8,-999.0,90,-99.99,,,0.00,Acu-Link.com,2013-10-21 21:13:00,
2013-10-21 17:28:00,50.2,47.4,29.65,WNW,292,6.3,-999.0,90,-99.99,,,0.00,Acu-Link.com,2013-10-21 21:28:00,
2013-10-21 17:43:00,50.2,47.4,29.66,NW,315,9.4,-999.0,90,-99.99,,,0.00,Acu-Link.com,2013-10-21 21:43:00,
2013-10-21 17:58:00,48.9,45.8,29.67,WNW,292,6.8,-999.0,89,-99.99,,,0.00,Acu-Link.com,2013-10-21 21:58:00,
2013-10-21 18:13:00,48.0,44.3,29.67,West,270,6.3,-999.0,87,-99.99,,,0.00,Acu-Link.com,2013-10-21 22:13:00,
2013-10-21 18:28:00,47.7,44.0,29.68,West,270,7.3,-999.0,87,-99.99,,,0.00,Acu-Link.com,2013-10-21 22:28:00,
2013-10-21 18:44:00,47.7,43.7,29.68,WNW,292,6.8,-999.0,86,-99.99,,,0.00,Acu-Link.com,2013-10-21 22:44:00,
2013-10-21 18:59:00,47.5,43.2,29.68,WSW,247,8.9,-999.0,85,-99.99,,,0.00,Acu-Link.com,2013-10-21 22:59:00,
2013-10-21 19:14:00,47.3,43.0,29.68,West,270,6.8,-999.0,85,-99.99,,,0.00,Acu-Link.com,2013-10-21 23:14:00,
2013-10-21 19:29:00,47.1,42.8,29.69,NNW,337,4.7,-999.0,85,-99.99,,,0.00,Acu-Link.com,2013-10-21 23:29:00,
2013-10-21 19:44:00,47.1,42.5,29.69,West,270,5.8,-999.0,84,-99.99,,,0.00,Acu-Link.com,2013-10-21 23:44:00,
2013-10-21 19:59:00,47.1,42.5,29.69,West,270,4.7,-999.0,84,-99.99,,,0.00,Acu-Link.com,2013-10-21 23:59:00,
2013-10-21 20:14:00,46.8,42.2,29.69,West,270,6.3,-999.0,84,-99.99,,,0.00,Acu-Link.com,2013-10-22 00:14:00,
2013-10-21 20:30:00,46.6,42.0,29.70,West,270,6.8,-999.0,84,-99.99,,,0.00,Acu-Link.com,2013-10-22 00:30:00,
2013-10-21 20:45:00,46.6,42.0,29.68,West,270,5.3,-999.0,84,-99.99,,,0.00,Acu-Link.com,2013-10-22 00:45:00,
2013-10-21 21:00:00,46.4,42.1,29.69,West,270,5.8,-999.0,85,-99.99,,,0.00,Acu-Link.com,2013-10-22 01:00:00,
2013-10-21 21:15:00,46.0,40.8,29.70,West,270,8.3,-999.0,82,-99.99,,,0.00,Acu-Link.com,2013-10-22 01:15:00,
2013-10-21 21:30:00,45.3,38.9,29.71,NW,315,5.8,-999.0,78,-99.99,,,0.00,Acu-Link.com,2013-10-22 01:30:00,
2013-10-21 21:46:00,44.8,36.3,29.71,WNW,292,10.9,-999.0,72,-99.99,,,0.00,Acu-Link.com,2013-10-22 01:46:00,
2013-10-21 22:01:00,43.9,36.2,29.71,WSW,247,6.3,-999.0,74,-99.99,,,0.00,Acu-Link.com,2013-10-22 02:01:00,
2013-10-21 22:16:00,42.8,36.1,29.72,WNW,292,4.2,-999.0,77,-99.99,,,0.00,Acu-Link.com,2013-10-22 02:16:00,
2013-10-21 22:31:00,42.3,35.3,29.73,NW,315,13.0,-999.0,76,-99.99,,,0.00,Acu-Link.com,2013-10-22 02:31:00,
2013-10-21 22:46:00,41.7,34.4,29.73,West,270,7.8,-999.0,75,-99.99,,,0.00,Acu-Link.com,2013-10-22 02:46:00,
2013-10-21 23:01:00,40.8,32.1,29.73,NNW,337,7.8,-999.0,71,-99.99,,,0.00,Acu-Link.com,2013-10-22 03:01:00,
2013-10-21 23:16:00,40.1,30.4,29.73,NW,315,8.9,-999.0,68,-99.99,,,0.00,Acu-Link.com,2013-10-22 03:16:00,
2013-10-21 23:31:00,39.2,29.5,29.73,WNW,292,6.3,-999.0,68,-99.99,,,0.00,Acu-Link.com,2013-10-22 03:31:00,
2013-10-21 23:47:00,38.7,29.4,29.74,West,270,7.8,-999.0,69,-99.99,,,0.00,Acu-Link.com,2013-10-22 03:47:00,